Time;durP1;ratioP1;P1;durP2;ratioP2;P2;SDS_P1;SDS_P2;PMS_P1;PMS_P2;Temp;Humidity;BMP_temperature;BMP_pressure;BME280_temperature;BME280_humidity;BME280_pressure;Samples;Min_cycle;Max_cycle;Signal;HPM_P1;HPM_P2
2022/10/09 00:00:46;;;;;;;3.80;3.37;;;13.00;99.90;;;;;;5050405;28;20453;-50
2022/10/09 00:03:13;;;;;;;4.83;3.30;;;13.00;99.90;;;;;;5050107;28;20455;-51
2022/10/09 00:05:40;;;;;;;4.73;3.70;;;12.70;99.90;;;;;;5049590;28;20467;-50
2022/10/09 00:08:07;;;;;;;4.40;3.93;;;12.50;99.90;;;;;;5050217;28;20484;-50
2022/10/09 00:10:40;;;;;;;4.03;3.37;;;12.40;99.90;;;;;;5050321;28;20532;-50
2022/10/09 00:13:07;;;;;;;4.00;3.20;;;12.50;99.90;;;;;;5050226;28;20831;-50
2022/10/09 00:15:38;;;;;;;3.53;3.23;;;12.60;99.90;;;;;;5049991;28;20481;-50
2022/10/09 00:18:05;;;;;;;4.80;4.30;;;12.50;99.90;;;;;;5049835;28;20441;-50
2022/10/09 00:20:35;;;;;;;4.10;3.40;;;12.50;99.90;;;;;;5049661;28;20462;-50
2022/10/09 00:23:02;;;;;;;4.20;3.80;;;12.80;99.90;;;;;;5049861;28;20445;-50
2022/10/09 00:25:28;;;;;;;4.30;3.90;;;13.00;99.90;;;;;;5049766;28;20442;-50
2022/10/09 00:27:58;;;;;;;3.43;3.13;;;13.10;99.90;;;;;;5049638;28;20446;-50
2022/10/09 00:30:26;;;;;;;3.57;3.23;;;13.00;99.90;;;;;;5049256;28;20468;-50
2022/10/09 00:32:52;;;;;;;4.07;3.40;;;13.10;99.90;;;;;;5049901;28;20544;-50
2022/10/09 00:35:20;;;;;;;5.63;3.80;;;13.20;99.90;;;;;;5049824;28;20477;-50
2022/10/09 00:37:47;;;;;;;4.40;4.00;;;13.00;99.90;;;;;;5050076;28;20551;-50
2022/10/09 00:40:14;;;;;;;4.30;3.40;;;13.00;99.90;;;;;;5049784;28;20450;-50
2022/10/09 00:42:43;;;;;;;5.63;3.67;;;13.00;99.90;;;;;;5049773;28;20455;-50
2022/10/09 00:45:19;;;;;;;5.50;3.90;;;13.10;99.90;;;;;;5049685;28;20802;-50
2022/10/09 00:47:48;;;;;;;6.30;4.37;;;13.20;99.90;;;;;;5049711;28;20471;-50
2022/10/09 00:50:19;;;;;;;4.80;3.57;;;13.10;99.90;;;;;;5049623;28;20455;-50
2022/10/09 00:52:47;;;;;;;4.87;4.33;;;12.70;99.90;;;;;;5049594;28;20438;-51
2022/10/09 00:55:14;;;;;;;4.37;3.70;;;12.50;99.90;;;;;;5048949;28;20471;-50
2022/10/09 00:57:42;;;;;;;6.17;5.17;;;12.40;99.90;;;;;;5049346;28;20472;-50
2022/10/09 01:00:13;;;;;;;4.93;4.33;;;12.40;99.90;;;;;;5049786;28;20448;-50
2022/10/09 01:02:40;;;;;;;5.90;3.80;;;12.40;99.90;;;;;;5049649;28;20451;-50
2022/10/09 01:05:09;;;;;;;9.03;5.40;;;12.30;99.90;;;;;;5049316;28;20439;-50
2022/10/09 01:07:45;;;;;;;4.30;3.40;;;12.30;99.90;;;;;;5049225;28;20564;-51
2022/10/09 01:10:25;;;;;;;5.73;4.00;;;12.30;99.90;;;;;;5049413;28;20461;-50
2022/10/09 01:12:56;;;;;;;7.00;3.90;;;12.30;99.90;;;;;;5049258;28;20815;-51
2022/10/09 01:15:30;;;;;;;4.13;3.73;;;12.30;99.90;;;;;;5049364;28;20573;-50
2022/10/09 01:18:04;;;;;;;4.43;3.80;;;12.40;99.90;;;;;;5048017;28;20444;-50
2022/10/09 01:20:46;;;;;;;4.50;4.10;;;12.20;99.90;;;;;;5048661;28;21008;-50
2022/10/09 01:23:41;;;;;;;4.73;3.63;;;12.20;99.90;;;;;;5048874;28;20442;-50
2022/10/09 01:26:32;;;;;;;4.97;3.80;;;12.10;99.90;;;;;;5046152;28;20471;-50
2022/10/09 01:29:05;;;;;;;5.27;4.77;;;12.10;99.90;;;;;;5048177;28;20450;-50
2022/10/09 01:31:37;;;;;;;6.07;4.00;;;12.40;99.90;;;;;;5049028;28;20449;-50
2022/10/09 01:34:05;;;;;;;4.90;3.70;;;12.30;99.90;;;;;;5048568;28;20483;-50
2022/10/09 01:36:32;;;;;;;6.50;3.70;;;12.10;99.90;;;;;;5048724;28;20804;-50
2022/10/09 01:39:02;;;;;;;6.43;3.23;;;12.20;99.90;;;;;;5049035;28;20526;-50
2022/10/09 01:41:29;;;;;;;5.53;3.93;;;12.40;99.90;;;;;;5048743;28;20972;-50
2022/10/09 01:43:56;;;;;;;5.20;4.00;;;12.40;99.90;;;;;;5048629;28;20445;-50
2022/10/09 01:46:27;;;;;;;4.67;4.17;;;12.20;99.90;;;;;;5048839;28;20466;-50
2022/10/09 01:49:08;;;;;;;5.17;4.47;;;12.10;99.90;;;;;;5048576;28;20875;-50
2022/10/09 01:51:40;;;;;;;7.00;4.40;;;12.00;99.90;;;;;;5048963;28;20448;-50
2022/10/09 01:54:11;;;;;;;5.20;4.70;;;11.90;99.90;;;;;;5048204;28;20982;-50
2022/10/09 01:56:39;;;;;;;4.80;4.33;;;11.90;99.90;;;;;;5095635;23;20582;-48
2022/10/09 01:59:11;;;;;;;6.83;4.40;;;11.80;99.90;;;;;;5009104;28;20448;-48
2022/10/09 02:01:41;;;;;;;6.43;5.17;;;11.90;99.90;;;;;;5008975;28;20450;-50
2022/10/09 02:04:11;;;;;;;6.40;4.90;;;11.90;99.90;;;;;;5008837;28;20445;-48
2022/10/09 02:06:40;;;;;;;5.27;4.40;;;11.90;99.90;;;;;;5008729;28;20464;-48
2022/10/09 02:09:11;;;;;;;7.10;4.70;;;11.80;99.90;;;;;;5009241;28;20492;-49
2022/10/09 02:11:39;;;;;;;6.00;4.37;;;11.80;99.90;;;;;;5009094;28;20445;-48
2022/10/09 02:14:06;;;;;;;5.63;5.00;;;11.80;99.90;;;;;;5008745;28;20524;-48
2022/10/09 02:16:37;;;;;;;6.63;4.83;;;11.80;99.90;;;;;;5008429;28;20860;-49
2022/10/09 02:19:11;;;;;;;5.73;5.10;;;11.80;99.90;;;;;;5008621;28;20539;-48
2022/10/09 02:21:42;;;;;;;6.23;4.80;;;12.00;99.90;;;;;;5009011;28;20449;-48
2022/10/09 02:24:15;;;;;;;7.30;4.77;;;11.90;99.90;;;;;;5008850;28;20444;-49
2022/10/09 02:26:42;;;;;;;6.77;4.80;;;11.90;99.90;;;;;;5008876;28;20845;-48
2022/10/09 02:29:10;;;;;;;5.97;4.77;;;11.90;99.90;;;;;;5007886;28;20449;-47
2022/10/09 02:31:39;;;;;;;4.90;4.37;;;12.20;99.90;;;;;;5008348;28;20449;-48
2022/10/09 02:34:09;;;;;;;6.20;4.37;;;12.20;99.90;;;;;;5008436;28;20448;-48
2022/10/09 02:36:37;;;;;;;6.77;5.13;;;12.20;99.90;;;;;;5008262;28;20481;-49
2022/10/09 02:39:05;;;;;;;5.40;4.40;;;12.20;99.90;;;;;;5008373;28;20442;-49
2022/10/09 02:41:33;;;;;;;4.40;3.77;;;12.20;99.90;;;;;;5008541;28;20455;-48
2022/10/09 02:44:00;;;;;;;10.20;5.30;;;12.30;99.90;;;;;;5008344;28;20454;-50
2022/10/09 02:46:27;;;;;;;5.67;4.90;;;12.40;99.90;;;;;;5008358;28;20466;-48
2022/10/09 02:48:54;;;;;;;4.60;4.20;;;12.60;99.90;;;;;;5008413;28;20814;-50
2022/10/09 02:51:22;;;;;;;5.40;4.73;;;12.40;99.90;;;;;;5008438;28;21035;-48
2022/10/09 02:53:52;;;;;;;5.83;5.23;;;12.20;99.90;;;;;;5007944;28;20444;-49
2022/10/09 02:56:18;;;;;;;7.10;5.67;;;12.00;99.90;;;;;;5007947;28;20530;-48
2022/10/09 02:58:45;;;;;;;5.97;5.17;;;12.00;99.90;;;;;;5008408;28;20441;-48
2022/10/09 03:01:12;;;;;;;5.90;5.40;;;12.00;99.90;;;;;;5008322;28;20450;-48
2022/10/09 03:03:39;;;;;;;4.53;4.13;;;12.20;99.90;;;;;;5008423;28;20528;-51
2022/10/09 03:06:09;;;;;;;7.10;4.50;;;12.40;99.90;;;;;;5008479;28;20434;-48
2022/10/09 03:08:38;;;;;;;5.83;5.20;;;12.60;99.90;;;;;;5008304;28;20446;-49
2022/10/09 03:11:06;;;;;;;6.60;5.77;;;12.60;99.90;;;;;;5008358;28;20449;-48
2022/10/09 03:13:33;;;;;;;5.10;4.33;;;12.70;99.90;;;;;;5008259;28;20452;-48
2022/10/09 03:16:03;;;;;;;8.53;4.73;;;12.80;99.90;;;;;;5007727;28;20473;-48
2022/10/09 03:18:30;;;;;;;5.53;4.47;;;12.70;99.90;;;;;;5008448;28;20470;-48
2022/10/09 03:20:57;;;;;;;5.30;3.83;;;12.50;99.90;;;;;;5007609;28;20451;-48
2022/10/09 03:23:24;;;;;;;5.90;4.60;;;12.40;99.90;;;;;;5007719;28;21010;-49
2022/10/09 03:25:57;;;;;;;5.20;4.67;;;12.40;99.90;;;;;;5007639;28;20452;-48
2022/10/09 03:28:24;;;;;;;6.27;5.13;;;12.20;99.90;;;;;;5007978;28;20465;-48
2022/10/09 03:30:52;;;;;;;5.00;4.50;;;12.30;99.90;;;;;;5007897;28;20537;-49
2022/10/09 03:33:18;;;;;;;5.90;4.40;;;12.50;99.90;;;;;;5007878;28;20454;-48
2022/10/09 03:35:46;;;;;;;4.93;4.43;;;12.60;99.90;;;;;;5007844;28;20579;-49
2022/10/09 03:38:13;;;;;;;4.77;4.27;;;12.60;99.90;;;;;;5007706;28;20851;-48
2022/10/09 03:40:40;;;;;;;5.57;5.07;;;12.60;99.90;;;;;;5007620;28;20821;-48
2022/10/09 03:43:08;;;;;;;7.27;4.90;;;12.60;99.90;;;;;;5010847;28;20450;-48
2022/10/09 03:45:35;;;;;;;5.00;4.50;;;12.60;99.90;;;;;;5011246;28;20887;-49
2022/10/09 03:48:02;;;;;;;4.37;3.97;;;12.60;99.90;;;;;;5011043;28;20462;-48
2022/10/09 03:50:28;;;;;;;5.27;4.63;;;12.70;99.90;;;;;;5010969;28;20535;-49
2022/10/09 03:52:55;;;;;;;8.50;4.00;;;12.80;99.90;;;;;;5010709;28;20451;-50
2022/10/09 03:55:22;;;;;;;6.23;4.30;;;12.90;99.90;;;;;;5010928;28;20478;-48
2022/10/09 03:57:49;;;;;;;5.30;4.80;;;12.90;99.90;;;;;;5010827;28;20483;-49
2022/10/09 04:00:17;;;;;;;8.87;6.40;;;12.90;99.90;;;;;;5011322;28;20447;-48
2022/10/09 04:02:44;;;;;;;6.30;5.70;;;12.90;99.90;;;;;;5010760;28;20449;-48
2022/10/09 04:05:11;;;;;;;8.10;7.00;;;12.80;99.90;;;;;;5010574;28;20892;-48
2022/10/09 04:07:38;;;;;;;9.03;8.23;;;12.20;99.90;;;;;;5010585;28;20993;-49
2022/10/09 04:10:05;;;;;;;7.57;6.87;;;11.90;99.90;;;;;;5010729;28;20446;-48
2022/10/09 04:12:32;;;;;;;9.07;6.67;;;11.80;99.90;;;;;;5010902;28;20447;-48
2022/10/09 04:14:59;;;;;;;7.80;7.00;;;11.80;99.90;;;;;;5010558;28;20455;-48
2022/10/09 04:17:27;;;;;;;7.87;6.97;;;11.70;99.90;;;;;;5010638;28;20475;-49
2022/10/09 04:19:54;;;;;;;6.63;5.77;;;11.80;99.90;;;;;;5009995;28;20452;-50
2022/10/09 04:22:21;;;;;;;6.70;6.10;;;11.90;99.90;;;;;;5010567;28;20456;-48
2022/10/09 04:24:48;;;;;;;6.47;5.70;;;11.90;99.90;;;;;;5010309;28;20537;-48
2022/10/09 04:27:15;;;;;;;10.00;7.20;;;12.00;99.90;;;;;;5010511;28;20485;-49
2022/10/09 04:29:41;;;;;;;14.30;7.17;;;12.10;99.90;;;;;;5010586;28;20963;-49
2022/10/09 04:32:08;;;;;;;8.63;6.73;;;12.20;99.90;;;;;;5010494;28;20449;-48
2022/10/09 04:34:36;;;;;;;6.27;5.67;;;12.00;99.90;;;;;;5009928;28;20452;-49
2022/10/09 04:37:03;;;;;;;7.73;6.30;;;11.80;99.90;;;;;;5010351;28;20563;-49
2022/10/09 04:39:30;;;;;;;9.37;5.83;;;11.80;99.90;;;;;;5010266;28;20532;-50
2022/10/09 04:41:57;;;;;;;7.63;6.27;;;11.80;99.90;;;;;;5010162;28;20449;-48
2022/10/09 04:44:24;;;;;;;7.93;6.60;;;12.00;99.90;;;;;;5009954;28;20457;-49
2022/10/09 04:46:51;;;;;;;6.87;6.10;;;12.30;99.90;;;;;;5010093;28;20550;-49
2022/10/09 04:49:18;;;;;;;5.83;5.23;;;12.40;99.90;;;;;;5010085;28;20445;-48
2022/10/09 04:51:46;;;;;;;6.00;5.40;;;12.50;99.90;;;;;;5010140;28;20452;-48
2022/10/09 04:54:13;;;;;;;9.03;6.37;;;12.40;99.90;;;;;;5009057;28;20450;-48
2022/10/09 04:56:40;;;;;;;8.50;6.47;;;12.50;99.90;;;;;;5009762;28;20677;-49
2022/10/09 04:59:07;;;;;;;7.10;5.80;;;12.40;99.90;;;;;;5009958;28;20528;-49
2022/10/09 05:01:34;;;;;;;7.70;6.23;;;12.20;99.90;;;;;;5009929;28;20484;-48
2022/10/09 05:04:01;;;;;;;8.03;5.70;;;12.40;99.90;;;;;;5009779;28;20485;-49
2022/10/09 05:06:27;;;;;;;7.47;6.37;;;12.20;99.90;;;;;;5009837;28;20497;-49
2022/10/09 05:08:56;;;;;;;6.43;5.47;;;12.20;99.90;;;;;;5009909;28;20446;-48
2022/10/09 05:11:24;;;;;;;6.70;6.00;;;12.30;99.90;;;;;;5009709;28;20530;-48
2022/10/09 05:13:54;;;;;;;8.73;5.67;;;12.10;99.90;;;;;;5009411;28;20526;-52
2022/10/09 05:16:22;;;;;;;7.90;6.43;;;12.00;99.90;;;;;;5009508;28;20487;-48
2022/10/09 05:18:52;;;;;;;8.13;6.73;;;12.10;99.90;;;;;;5009995;28;20480;-48
2022/10/09 05:21:20;;;;;;;5.97;5.37;;;12.30;99.90;;;;;;5009169;28;20506;-49
2022/10/09 05:23:48;;;;;;;9.07;6.50;;;12.50;99.90;;;;;;5009148;28;20542;-48
2022/10/09 05:26:17;;;;;;;7.30;6.57;;;12.60;99.90;;;;;;5009779;28;20467;-49
2022/10/09 05:28:45;;;;;;;8.73;6.37;;;12.60;99.90;;;;;;5009372;28;20458;-50
2022/10/09 05:31:17;;;;;;;10.67;6.47;;;12.40;99.90;;;;;;5009668;28;20446;-49
2022/10/09 05:33:44;;;;;;;7.00;6.30;;;11.90;99.90;;;;;;5009301;28;20621;-48
2022/10/09 05:36:11;;;;;;;7.40;6.60;;;11.70;99.90;;;;;;5009381;28;20482;-51
2022/10/09 05:38:37;;;;;;;7.77;7.00;;;11.90;99.90;;;;;;5009208;28;20446;-48
2022/10/09 05:41:07;;;;;;;9.70;7.47;;;12.10;99.90;;;;;;5009597;28;20534;-48
2022/10/09 05:43:36;;;;;;;7.60;6.60;;;12.30;99.90;;;;;;5009065;28;20538;-48
2022/10/09 05:46:07;;;;;;;7.03;6.40;;;12.40;99.90;;;;;;5009396;28;20530;-48
2022/10/09 05:48:34;;;;;;;6.80;6.20;;;12.50;99.90;;;;;;5009097;28;20446;-48
2022/10/09 05:51:13;;;;;;;8.13;6.93;;;12.50;99.90;;;;;;5009050;28;20447;-48
2022/10/09 05:53:41;;;;;;;11.33;6.70;;;12.60;99.90;;;;;;5008885;28;20527;-49
2022/10/09 05:56:16;;;;;;;7.87;6.30;;;12.60;99.90;;;;;;5008950;28;20473;-48
2022/10/09 05:58:49;;;;;;;6.23;5.50;;;12.60;99.90;;;;;;5009092;28;20447;-48
2022/10/09 06:01:16;;;;;;;7.53;5.47;;;12.60;99.90;;;;;;5008963;28;21015;-48
2022/10/09 06:03:42;;;;;;;12.33;6.50;;;12.70;99.90;;;;;;5008139;28;20457;-49
2022/10/09 06:06:09;;;;;;;8.40;6.20;;;12.70;99.90;;;;;;5008770;28;20451;-49
2022/10/09 06:08:38;;;;;;;6.67;5.93;;;12.70;99.90;;;;;;5009023;28;20529;-48
2022/10/09 06:11:13;;;;;;;8.40;6.90;;;12.60;99.90;;;;;;5008959;28;20916;-48
2022/10/09 06:13:40;;;;;;;8.33;6.60;;;12.60;99.90;;;;;;5008534;28;20456;-49
2022/10/09 06:16:10;;;;;;;7.97;6.67;;;12.60;99.90;;;;;;5008246;28;20531;-50
2022/10/09 06:18:37;;;;;;;7.30;6.60;;;12.70;99.90;;;;;;5008806;28;20453;-48
2022/10/09 06:21:05;;;;;;;8.73;7.10;;;12.60;99.90;;;;;;5008354;28;20451;-48
2022/10/09 06:23:32;;;;;;;9.17;7.40;;;12.40;99.90;;;;;;5008543;28;20450;-50
2022/10/09 06:26:00;;;;;;;10.07;7.97;;;12.50;99.90;;;;;;5008462;28;20858;-48
2022/10/09 06:28:28;;;;;;;7.80;6.93;;;12.50;99.90;;;;;;5008121;28;20533;-48
2022/10/09 06:31:01;;;;;;;11.43;7.77;;;12.60;99.90;;;;;;5008578;28;20445;-49
2022/10/09 06:33:31;;;;;;;8.20;7.37;;;12.60;99.90;;;;;;5008643;28;20446;-48
2022/10/09 06:36:03;;;;;;;10.50;9.40;;;12.60;99.90;;;;;;5008697;28;20472;-48
2022/10/09 06:38:30;;;;;;;12.60;9.60;;;12.40;99.90;;;;;;5008325;28;20448;-48
2022/10/09 06:41:02;;;;;;;11.80;9.50;;;11.90;99.90;;;;;;5008485;28;20532;-49
2022/10/09 06:43:29;;;;;;;11.00;8.10;;;12.00;99.90;;;;;;5008358;28;20892;-48
2022/10/09 06:45:56;;;;;;;11.90;9.40;;;12.30;99.90;;;;;;5008423;28;20448;-48
2022/10/09 06:48:23;;;;;;;10.00;8.97;;;12.10;99.90;;;;;;5008410;28;20940;-49
2022/10/09 06:50:51;;;;;;;12.00;8.43;;;11.90;99.90;;;;;;5008301;28;20457;-49
2022/10/09 06:53:18;;;;;;;12.27;10.27;;;11.80;99.90;;;;;;5007910;28;20962;-49
2022/10/09 06:55:52;;;;;;;11.57;9.33;;;12.10;99.90;;;;;;5008584;28;20450;-48
2022/10/09 06:58:19;;;;;;;14.20;10.00;;;11.70;99.90;;;;;;5008203;28;20476;-48
2022/10/09 07:00:46;;;;;;;13.77;10.70;;;12.00;99.90;;;;;;5008293;28;20448;-48
2022/10/09 07:03:13;;;;;;;12.20;10.00;;;12.30;99.90;;;;;;5008136;28;20531;-49
2022/10/09 07:05:40;;;;;;;10.83;9.83;;;12.40;99.90;;;;;;5007764;28;20535;-48
2022/10/09 07:08:08;;;;;;;10.60;8.77;;;12.50;99.90;;;;;;5007986;28;20484;-50
2022/10/09 07:10:35;;;;;;;9.43;8.53;;;12.50;99.90;;;;;;5008159;28;20537;-51
2022/10/09 07:13:01;;;;;;;10.13;9.13;;;12.10;99.90;;;;;;5007455;28;20447;-49
2022/10/09 07:15:28;;;;;;;9.73;8.83;;;11.90;99.90;;;;;;5008869;28;20450;-48
2022/10/09 07:17:55;;;;;;;11.50;10.23;;;11.80;99.90;;;;;;5011105;28;21083;-51
2022/10/09 07:20:22;;;;;;;16.10;8.90;;;11.70;99.90;;;;;;5011013;28;20455;-48
2022/10/09 07:22:49;;;;;;;9.80;8.77;;;11.80;99.90;;;;;;5011755;28;20448;-48
2022/10/09 07:25:17;;;;;;;11.47;8.37;;;12.10;99.90;;;;;;5011349;28;20452;-50
2022/10/09 07:27:44;;;;;;;9.03;8.13;;;12.20;99.90;;;;;;5011127;28;20513;-49
2022/10/09 07:30:11;;;;;;;9.77;8.90;;;12.30;99.90;;;;;;5010916;28;20457;-49
2022/10/09 07:32:38;;;;;;;10.47;8.33;;;12.20;99.90;;;;;;5011363;28;20455;-49
2022/10/09 07:35:06;;;;;;;13.40;9.17;;;12.20;99.90;;;;;;5011264;28;20532;-48
2022/10/09 07:37:32;;;;;;;9.77;8.07;;;12.20;99.90;;;;;;5011343;28;20646;-50
2022/10/09 07:39:59;;;;;;;7.60;6.73;;;12.00;99.90;;;;;;5011199;28;20532;-48
2022/10/09 07:42:27;;;;;;;8.10;7.40;;;12.00;99.90;;;;;;5011011;28;20544;-48
2022/10/09 07:44:54;;;;;;;8.00;6.40;;;12.00;99.90;;;;;;5010805;28;20473;-48
2022/10/09 07:47:21;;;;;;;8.70;7.90;;;12.40;99.90;;;;;;5010773;28;20465;-48
2022/10/09 07:49:48;;;;;;;7.63;6.20;;;12.60;99.90;;;;;;5010980;28;20545;-48
2022/10/09 07:52:15;;;;;;;8.27;7.47;;;12.70;99.90;;;;;;5011087;28;20532;-48
2022/10/09 07:54:41;;;;;;;10.77;8.87;;;12.90;99.90;;;;;;5010398;28;20450;-50
2022/10/09 07:57:08;;;;;;;8.93;8.07;;;13.00;99.90;;;;;;5012190;28;20585;-48
2022/10/09 07:59:36;;;;;;;9.33;7.80;;;13.10;99.90;;;;;;5010720;28;20454;-48
2022/10/09 08:02:03;;;;;;;7.40;6.70;;;13.20;99.90;;;;;;5011142;28;20520;-48
2022/10/09 08:04:30;;;;;;;8.00;7.20;;;13.10;99.90;;;;;;5010804;28;20447;-49
2022/10/09 08:06:58;;;;;;;8.93;8.03;;;12.90;99.90;;;;;;5010752;28;20554;-48
2022/10/09 08:09:25;;;;;;;9.97;7.63;;;12.90;99.90;;;;;;5010859;28;20453;-49
2022/10/09 08:11:52;;;;;;;8.67;7.33;;;13.00;99.90;;;;;;5010634;28;20446;-48
2022/10/09 08:14:19;;;;;;;8.20;6.53;;;13.10;99.90;;;;;;5010864;28;20537;-49
2022/10/09 08:16:48;;;;;;;9.03;6.20;;;13.00;99.90;;;;;;5011044;28;20581;-48
2022/10/09 08:19:15;;;;;;;8.47;7.67;;;13.10;99.90;;;;;;5010683;28;20457;-48
2022/10/09 08:21:41;;;;;;;9.30;8.33;;;13.10;99.90;;;;;;5010159;28;20444;-48
2022/10/09 08:24:11;;;;;;;9.80;8.53;;;13.20;99.90;;;;;;5010339;28;20529;-49
2022/10/09 08:26:38;;;;;;;9.63;8.70;;;13.20;99.90;;;;;;5010357;28;20806;-49
2022/10/09 08:29:07;;;;;;;13.83;10.93;;;13.30;99.90;;;;;;5009890;28;20612;-48
2022/10/09 08:31:34;;;;;;;12.40;11.20;;;13.40;99.90;;;;;;5010484;28;20535;-50
2022/10/09 08:34:03;;;;;;;10.23;9.13;;;13.40;99.90;;;;;;5010557;28;20470;-48
2022/10/09 08:36:31;;;;;;;8.80;7.87;;;13.40;99.90;;;;;;5010327;28;20466;-50
2022/10/09 08:38:58;;;;;;;9.33;7.90;;;13.20;99.90;;;;;;5010080;28;20455;-49
2022/10/09 08:41:39;;;;;;;9.00;8.10;;;13.20;99.90;;;;;;5010360;28;20999;-49
2022/10/09 08:44:12;;;;;;;9.23;8.23;;;13.10;99.90;;;;;;5010200;28;20454;-49
2022/10/09 08:47:03;;;;;;;10.27;7.70;;;13.20;99.90;;;;;;5010127;28;20462;-49
2022/10/09 08:49:40;;;;;;;11.70;9.43;;;13.40;99.90;;;;;;5010250;28;20448;-50
2022/10/09 08:52:19;;;;;;;9.17;8.33;;;13.40;99.90;;;;;;5010222;28;20842;-49
2022/10/09 08:54:46;;;;;;;11.53;8.50;;;13.50;99.90;;;;;;5009862;28;20454;-50
2022/10/09 08:57:16;;;;;;;9.90;7.77;;;13.50;99.90;;;;;;5009831;28;20483;-49
2022/10/09 08:59:44;;;;;;;7.67;6.70;;;13.50;99.90;;;;;;5009999;28;20445;-49
2022/10/09 09:02:37;;;;;;;9.37;7.90;;;13.60;99.90;;;;;;5009995;28;20446;-49
2022/10/09 09:05:22;;;;;;;7.90;6.60;;;13.60;99.90;;;;;;5009606;28;21036;-49
2022/10/09 09:07:55;;;;;;;7.70;6.80;;;13.70;99.90;;;;;;5009430;28;20461;-50
2022/10/09 09:10:32;;;;;;;7.40;6.50;;;13.50;99.90;;;;;;5009719;28;20961;-49
2022/10/09 09:13:08;;;;;;;8.30;7.00;;;13.30;99.90;;;;;;5009781;28;20451;-49
2022/10/09 09:15:44;;;;;;;7.90;7.10;;;13.50;99.90;;;;;;5009775;28;20449;-51
2022/10/09 09:18:25;;;;;;;9.87;6.70;;;13.60;99.90;;;;;;5009353;28;20490;-49
2022/10/09 09:20:54;;;;;;;11.57;7.37;;;13.70;99.90;;;;;;5009305;28;20767;-49
2022/10/09 09:23:27;;;;;;;13.40;8.53;;;13.70;99.90;;;;;;5009214;28;20457;-49
2022/10/09 09:25:55;;;;;;;8.43;7.50;;;13.70;99.90;;;;;;5009412;28;20446;-50
2022/10/09 09:28:27;;;;;;;8.10;7.30;;;13.70;99.90;;;;;;5009042;28;20533;-50
2022/10/09 09:30:58;;;;;;;9.10;6.97;;;13.70;99.90;;;;;;5009506;28;20453;-50
2022/10/09 09:33:35;;;;;;;11.20;7.77;;;13.70;99.90;;;;;;5009269;28;20962;-49
2022/10/09 09:36:09;;;;;;;8.83;7.50;;;13.60;99.90;;;;;;5009617;28;20537;-51
2022/10/09 09:38:36;;;;;;;9.50;8.53;;;13.60;99.90;;;;;;5008479;28;20488;-49
2022/10/09 09:41:04;;;;;;;11.73;8.37;;;13.70;99.90;;;;;;5008996;28;20454;-49
2022/10/09 09:43:31;;;;;;;7.60;6.77;;;13.70;99.90;;;;;;5009248;28;20448;-50
2022/10/09 09:45:59;;;;;;;10.10;9.10;;;13.60;99.90;;;;;;5009092;28;20510;-49
2022/10/09 09:48:34;;;;;;;9.07;8.27;;;13.60;99.90;;;;;;5009801;28;20966;-49
2022/10/09 09:51:04;;;;;;;11.07;7.67;;;13.40;99.90;;;;;;5009167;28;20484;-50
2022/10/09 09:53:34;;;;;;;11.53;8.70;;;13.60;99.90;;;;;;5009235;28;20460;-50
2022/10/09 09:56:01;;;;;;;8.10;7.30;;;13.60;99.90;;;;;;5009435;28;21028;-49
2022/10/09 09:58:34;;;;;;;14.20;7.60;;;13.70;99.90;;;;;;5009205;28;20485;-50
2022/10/09 10:01:05;;;;;;;8.90;8.10;;;13.60;99.90;;;;;;5008963;28;20818;-51
2022/10/09 10:03:33;;;;;;;10.57;9.57;;;13.60;99.90;;;;;;5009202;28;20541;-50
2022/10/09 10:06:00;;;;;;;9.33;8.40;;;13.60;99.90;;;;;;5008832;28;20456;-49
2022/10/09 10:08:30;;;;;;;8.37;7.37;;;13.60;99.90;;;;;;5009229;28;20445;-49
2022/10/09 10:10:59;;;;;;;9.93;8.40;;;13.70;99.90;;;;;;5009049;28;20453;-49
2022/10/09 10:13:32;;;;;;;11.13;8.40;;;13.70;99.90;;;;;;5008712;28;20553;-49
2022/10/09 10:16:00;;;;;;;10.50;8.33;;;13.70;99.90;;;;;;5008763;28;20537;-49
2022/10/09 10:18:31;;;;;;;10.20;8.70;;;13.70;99.90;;;;;;5008899;28;21011;-50
2022/10/09 10:21:03;;;;;;;10.90;7.87;;;13.70;99.90;;;;;;5008592;28;20450;-49
2022/10/09 10:23:38;;;;;;;8.87;7.77;;;13.70;99.90;;;;;;5008608;28;20540;-49
2022/10/09 10:26:11;;;;;;;10.13;7.87;;;13.90;99.90;;;;;;4994468;28;20464;-49
2022/10/09 10:28:46;;;;;;;8.97;7.33;;;13.90;99.90;;;;;;4988751;28;20469;-49
2022/10/09 10:31:19;;;;;;;7.90;7.10;;;13.90;99.90;;;;;;4989264;28;20492;-52
2022/10/09 10:33:51;;;;;;;9.37;8.37;;;14.00;99.90;;;;;;4988534;28;20458;-50
2022/10/09 10:36:19;;;;;;;8.40;7.00;;;14.00;99.90;;;;;;4989215;28;20559;-49
2022/10/09 10:38:55;;;;;;;8.20;7.40;;;14.00;99.90;;;;;;4989109;28;20566;-49
2022/10/09 10:41:27;;;;;;;8.13;6.73;;;14.00;99.90;;;;;;4989119;28;20555;-49
2022/10/09 10:43:58;;;;;;;8.20;7.40;;;14.00;99.90;;;;;;4988766;28;20831;-49
2022/10/09 10:46:29;;;;;;;8.53;6.93;;;13.90;99.90;;;;;;4988739;28;20554;-50
2022/10/09 10:48:58;;;;;;;6.87;6.17;;;13.60;99.90;;;;;;4988863;28;20448;-50
2022/10/09 10:51:41;;;;;;;8.47;6.93;;;13.70;99.90;;;;;;4991027;28;21002;-49
2022/10/09 10:54:26;;;;;;;14.10;8.30;;;13.90;99.90;;;;;;4992067;28;20451;-50
2022/10/09 10:57:04;;;;;;;7.07;6.30;;;14.10;99.90;;;;;;4992065;28;20990;-51
2022/10/09 10:59:39;;;;;;;8.13;6.73;;;14.00;99.90;;;;;;4992110;28;20440;-50
2022/10/09 11:02:34;;;;;;;10.47;7.10;;;14.10;99.90;;;;;;4992484;28;20442;-50
2022/10/09 11:05:12;;;;;;;6.67;5.90;;;14.20;99.90;;;;;;5002004;28;20772;-49
2022/10/09 11:07:46;;;;;;;13.93;7.40;;;14.30;99.90;;;;;;4992865;28;20461;-51
2022/10/09 11:10:23;;;;;;;8.50;6.60;;;14.40;99.90;;;;;;4999604;28;20434;-49
2022/10/09 11:12:55;;;;;;;9.10;6.60;;;14.40;99.90;;;;;;5003174;28;20440;-50
2022/10/09 11:15:36;;;;;;;8.53;7.00;;;14.40;99.90;;;;;;5004662;28;20439;-50
2022/10/09 11:18:14;;;;;;;8.03;7.00;;;14.50;99.90;;;;;;4994759;28;20507;-51
2022/10/09 11:21:12;;;;;;;9.40;7.10;;;14.70;99.90;;;;;;5003875;28;20450;-50
2022/10/09 11:23:53;;;;;;;7.20;6.40;;;14.70;99.90;;;;;;5000723;28;20530;-49
2022/10/09 11:26:30;;;;;;;7.83;7.03;;;14.70;99.90;;;;;;4995570;28;20461;-49
2022/10/09 11:29:01;;;;;;;9.17;7.63;;;14.80;99.90;;;;;;5001013;28;20427;-51
2022/10/09 11:31:32;;;;;;;7.47;6.73;;;14.70;99.90;;;;;;5005250;28;20462;-50
2022/10/09 11:34:04;;;;;;;9.80;7.70;;;14.80;99.90;;;;;;4994705;28;20479;-52
2022/10/09 11:36:34;;;;;;;7.87;6.63;;;14.80;99.90;;;;;;5004912;28;20529;-49
2022/10/09 11:39:02;;;;;;;8.70;7.90;;;14.80;99.90;;;;;;5001556;28;20562;-50
2022/10/09 11:41:31;;;;;;;7.30;6.47;;;14.70;99.90;;;;;;4996407;28;20447;-50
2022/10/09 11:44:12;;;;;;;6.70;6.03;;;14.80;99.90;;;;;;4992964;28;20822;-50
2022/10/09 11:46:45;;;;;;;7.07;6.17;;;14.70;99.90;;;;;;5009922;28;20473;-49
2022/10/09 11:49:21;;;;;;;7.00;6.20;;;14.70;99.90;;;;;;4998465;28;20472;-51
2022/10/09 11:51:55;;;;;;;6.57;5.90;;;14.30;99.90;;;;;;5006761;28;20762;-50
2022/10/09 11:54:24;;;;;;;7.63;6.27;;;14.20;99.90;;;;;;4995750;28;20457;-50
2022/10/09 11:56:55;;;;;;;6.90;6.03;;;14.30;99.90;;;;;;5010089;28;20494;-50
2022/10/09 11:59:24;;;;;;;8.43;7.17;;;14.40;99.90;;;;;;5008111;28;20478;-50
2022/10/09 12:01:52;;;;;;;8.20;7.40;;;14.60;99.90;;;;;;5001009;28;20443;-50
2022/10/09 12:04:25;;;;;;;7.57;6.30;;;14.60;99.90;;;;;;5003652;28;20460;-51
2022/10/09 12:06:55;;;;;;;10.80;7.43;;;14.40;99.90;;;;;;5005522;28;20474;-50
2022/10/09 12:09:26;;;;;;;7.57;6.70;;;14.10;99.90;;;;;;4997685;28;20808;-50
2022/10/09 12:12:02;;;;;;;7.03;6.33;;;14.00;99.90;;;;;;5007083;28;20469;-49
2022/10/09 12:14:30;;;;;;;7.63;6.67;;;14.20;99.90;;;;;;4996633;28;20447;-49
2022/10/09 12:16:58;;;;;;;6.27;5.60;;;14.30;99.90;;;;;;5000818;28;20910;-50
2022/10/09 12:19:29;;;;;;;6.93;5.63;;;14.30;99.90;;;;;;5004184;28;20482;-50
2022/10/09 12:22:03;;;;;;;7.23;6.50;;;14.40;99.90;;;;;;4994015;28;20441;-50
2022/10/09 12:24:33;;;;;;;5.73;4.90;;;14.70;99.90;;;;;;5004498;28;20453;-50
2022/10/09 12:27:04;;;;;;;6.37;5.33;;;14.80;99.90;;;;;;5000932;28;20463;-51
2022/10/09 12:29:36;;;;;;;6.80;6.10;;;14.80;99.90;;;;;;4995812;28;20441;-50
2022/10/09 12:32:07;;;;;;;7.27;6.17;;;14.80;99.90;;;;;;5006872;28;20447;-51
2022/10/09 12:34:38;;;;;;;5.97;5.37;;;14.80;99.90;;;;;;4997020;28;20531;-51
2022/10/09 12:37:13;;;;;;;6.67;6.07;;;14.80;99.90;;;;;;4999699;28;21180;-50
2022/10/09 12:39:40;;;;;;;7.30;6.07;;;14.90;99.90;;;;;;5005868;28;20478;-50
2022/10/09 12:42:15;;;;;;;6.63;6.03;;;14.80;99.90;;;;;;4993740;28;20443;-49
2022/10/09 12:44:45;;;;;;;5.57;5.07;;;14.90;99.90;;;;;;5002387;28;20551;-50
2022/10/09 12:47:20;;;;;;;5.17;4.73;;;14.90;99.90;;;;;;5002150;28;20463;-50
2022/10/09 12:49:58;;;;;;;6.10;5.50;;;14.90;99.90;;;;;;4993838;28;20543;-49
2022/10/09 12:52:26;;;;;;;5.53;5.03;;;15.00;99.90;;;;;;5005255;28;20805;-49
2022/10/09 12:54:52;;;;;;;6.43;5.70;;;15.00;99.90;;;;;;4999121;28;20945;-51
2022/10/09 12:57:21;;;;;;;7.10;6.00;;;14.90;99.90;;;;;;4997022;28;20471;-50
2022/10/09 12:59:49;;;;;;;7.27;5.80;;;15.00;99.90;;;;;;5005581;28;20481;-50